createdAt,value
2023-04-04T00:00:55.803Z,101418.81
2023-04-04T00:05:57.417Z,101413.47
2023-04-04T00:11:00.566Z,101411.00
2023-04-04T00:16:02.334Z,101404.78
2023-04-04T00:21:04.021Z,101405.09
2023-04-04T00:26:05.689Z,101399.34
2023-04-04T00:31:07.489Z,101388.00
2023-04-04T00:36:09.156Z,101399.22
2023-04-04T00:41:11.490Z,101381.94
2023-04-04T00:46:15.157Z,101392.34
2023-04-04T00:51:17.076Z,101382.00
2023-04-04T00:56:19.946Z,101384.56
2023-04-04T01:01:21.656Z,101381.88
2023-04-04T01:06:23.462Z,101376.28
2023-04-04T01:11:27.350Z,101372.09
2023-04-04T01:16:29.375Z,101376.63
2023-04-04T01:21:31.232Z,101370.56
2023-04-04T01:26:33.170Z,101373.56
2023-04-04T01:31:43.144Z,101366.97
2023-04-04T01:37:03.279Z,101371.25
2023-04-04T01:42:08.269Z,101361.69
2023-04-04T01:47:13.116Z,101358.25
2023-04-04T01:52:15.618Z,101358.94
2023-04-04T01:57:17.501Z,101346.06
2023-04-04T02:02:19.412Z,101336.69
2023-04-04T02:07:21.064Z,101334.94
2023-04-04T02:12:23.723Z,101337.91
2023-04-04T02:17:28.467Z,101335.81
2023-04-04T02:22:30.579Z,101338.03
2023-04-04T02:27:32.365Z,101332.13
2023-04-04T02:32:34.763Z,101329.78
2023-04-04T02:37:36.602Z,101330.25
2023-04-04T02:42:45.583Z,101329.84
2023-04-04T02:47:51.495Z,101326.41
2023-04-04T02:53:01.434Z,101320.72
2023-04-04T02:58:06.203Z,101319.00
2023-04-04T03:03:08.187Z,101324.63
2023-04-04T03:08:16.195Z,101316.84
2023-04-04T03:13:17.840Z,101328.28
2023-04-04T03:18:20.939Z,101328.78
2023-04-04T03:23:22.630Z,101328.00
2023-04-04T03:28:24.307Z,101327.91
2023-04-04T03:33:27.415Z,101325.69
2023-04-04T03:38:29.125Z,101319.19
2023-04-04T03:43:31.529Z,101321.69
2023-04-04T03:48:34.193Z,101311.63
2023-04-04T03:53:38.383Z,101314.81
2023-04-04T03:58:40.099Z,101310.31
2023-04-04T04:03:44.820Z,101308.47
2023-04-04T04:08:46.741Z,101308.78
2023-04-04T04:13:48.316Z,101315.00
2023-04-04T04:18:49.955Z,101315.38
2023-04-04T04:23:59.859Z,101315.94
2023-04-04T04:29:01.559Z,101315.69
2023-04-04T04:34:10.879Z,101324.16
2023-04-04T04:39:14.776Z,101327.94
2023-04-04T04:44:29.259Z,101330.44
2023-04-04T04:49:32.424Z,101330.72
2023-04-04T04:54:39.521Z,101326.97
2023-04-04T04:59:41.480Z,101320.00
2023-04-04T05:04:45.599Z,101324.34
2023-04-04T05:09:52.500Z,101333.56
2023-04-04T05:14:57.250Z,101331.41
2023-04-04T05:19:59.677Z,101340.78
2023-04-04T05:25:01.607Z,101349.56
2023-04-04T05:30:03.518Z,101349.41
2023-04-04T05:35:16.593Z,101360.34
2023-04-04T05:40:18.392Z,101359.63
2023-04-04T05:45:26.003Z,101362.06
2023-04-04T05:50:28.198Z,101356.03
2023-04-04T05:55:36.044Z,101362.63
2023-04-04T06:00:39.330Z,101369.47
2023-04-04T06:05:44.336Z,101370.25
2023-04-04T06:10:47.125Z,101372.84
2023-04-04T06:15:48.839Z,101379.59
2023-04-04T06:20:50.746Z,101365.31
2023-04-04T06:25:53.513Z,101368.53
2023-04-04T06:30:56.164Z,101353.66
2023-04-04T06:36:04.501Z,101352.41
2023-04-04T06:41:06.674Z,101356.06
2023-04-04T06:46:09.053Z,101360.50
2023-04-04T06:51:12.103Z,101361.66
2023-04-04T06:56:18.799Z,101355.13
2023-04-04T07:01:20.466Z,101362.50
2023-04-04T07:06:25.814Z,101360.47
2023-04-04T07:11:29.166Z,101355.97
2023-04-04T07:16:31.595Z,101361.72
2023-04-04T07:21:33.220Z,101345.28
2023-04-04T07:26:35.143Z,101352.31
2023-04-04T07:31:36.881Z,101359.13
2023-04-04T07:36:38.530Z,101351.38
2023-04-04T07:41:41.096Z,101347.34
2023-04-04T07:46:42.722Z,101369.41
2023-04-04T07:51:44.711Z,101357.41
2023-04-04T07:56:47.437Z,101355.22
2023-04-04T08:01:49.023Z,101359.13
2023-04-04T08:06:50.644Z,101359.75
2023-04-04T08:11:52.775Z,101354.94
2023-04-04T08:16:54.465Z,101366.41
2023-04-04T08:21:56.776Z,101357.00
2023-04-04T08:27:05.311Z,101344.94
2023-04-04T08:32:07.581Z,101348.28
2023-04-04T08:37:09.681Z,101341.59
2023-04-04T08:42:12.376Z,101352.31
2023-04-04T08:47:14.912Z,101342.63
2023-04-04T08:52:19.264Z,101347.59
2023-04-04T08:57:21.153Z,101345.13
2023-04-04T09:03:10.448Z,101331.09
2023-04-04T09:08:12.899Z,101322.19
2023-04-04T09:13:16.498Z,101330.91
2023-04-04T09:18:19.057Z,101332.09
2023-04-04T09:23:21.379Z,101330.03
2023-04-04T09:28:23.589Z,101329.94
2023-04-04T09:33:25.914Z,101318.84
2023-04-04T09:38:29.510Z,101311.00
2023-04-04T09:43:32.328Z,101324.25
2023-04-04T09:48:37.040Z,101324.94
2023-04-04T09:53:39.927Z,101330.09
2023-04-04T09:58:55.984Z,101333.81
2023-04-04T10:04:05.848Z,101308.66
2023-04-04T10:09:08.151Z,101329.00
2023-04-04T10:14:09.752Z,101314.50
2023-04-04T10:19:12.505Z,101296.38
2023-04-04T10:24:14.201Z,101325.09
2023-04-04T10:29:15.905Z,101309.97
2023-04-04T10:34:20.780Z,101311.63
2023-04-04T10:39:27.641Z,101306.63
2023-04-04T10:44:33.524Z,101292.13
2023-04-04T10:49:36.742Z,101292.38
2023-04-04T10:54:38.393Z,101290.97
2023-04-04T11:00:02.455Z,101284.50
2023-04-04T11:05:12.860Z,101281.25
2023-04-04T11:10:16.765Z,101288.03
2023-04-04T11:15:21.473Z,101273.66
2023-04-04T11:20:28.417Z,101259.38
2023-04-04T11:25:33.465Z,101270.41
2023-04-04T11:30:44.107Z,101257.22
2023-04-04T11:35:50.197Z,101242.59
2023-04-04T11:40:55.204Z,101251.72
2023-04-04T11:46:07.959Z,101246.03
2023-04-04T11:51:11.540Z,101244.03
2023-04-04T11:56:16.081Z,101226.59
2023-04-04T12:01:19.160Z,101227.25
2023-04-04T12:06:21.030Z,101220.16
2023-04-04T12:11:26.075Z,101222.88
2023-04-04T12:16:28.281Z,101215.19
2023-04-04T12:21:33.281Z,101227.44
2023-04-04T12:26:39.891Z,101205.97
2023-04-04T12:31:43.359Z,101207.72
2023-04-04T12:36:49.031Z,101204.38
2023-04-04T12:41:53.640Z,101200.47
2023-04-04T12:46:58.989Z,101204.75
2023-04-04T12:52:04.523Z,101190.34
2023-04-04T12:57:07.516Z,101185.38
2023-04-04T13:02:12.509Z,101191.75
2023-04-04T13:07:28.749Z,101186.69
2023-04-04T13:12:59.456Z,101179.75
2023-04-04T13:18:14.420Z,101177.50
2023-04-04T13:23:16.328Z,101177.66
2023-04-04T13:28:17.988Z,101167.25
2023-04-04T13:33:19.596Z,101155.84
2023-04-04T13:38:21.216Z,101155.78
2023-04-04T13:43:22.812Z,101156.94
2023-04-04T13:48:24.405Z,101166.00
2023-04-04T13:53:26.213Z,101143.78
2023-04-04T13:58:27.804Z,101143.78
2023-04-04T14:03:30.397Z,101134.09
2023-04-04T14:08:33.771Z,101134.94
2023-04-04T14:13:36.934Z,101122.53
2023-04-04T14:18:38.549Z,101115.78
2023-04-04T14:23:40.231Z,101121.81
2023-04-04T14:28:42.008Z,101122.94
2023-04-04T14:33:43.681Z,101114.78
2023-04-04T14:38:45.261Z,101123.66
2023-04-04T14:43:46.937Z,101120.72
2023-04-04T14:48:48.942Z,101102.56
2023-04-04T14:53:52.504Z,101107.88
2023-04-04T14:58:54.694Z,101119.47
2023-04-04T15:03:56.594Z,101115.41
2023-04-04T15:08:58.477Z,101101.16
2023-04-04T15:14:00.228Z,101106.91
2023-04-04T15:19:01.972Z,101098.06
2023-04-04T15:24:03.758Z,101099.59
2023-04-04T15:29:05.357Z,101098.44
2023-04-04T15:34:07.229Z,101107.59
2023-04-04T15:39:11.093Z,101092.78
2023-04-04T15:44:12.715Z,101088.91
2023-04-04T15:49:14.908Z,101091.06
2023-04-04T15:54:16.521Z,101090.72
2023-04-04T15:59:18.181Z,101102.06
2023-04-04T16:04:19.899Z,101086.78
2023-04-04T16:09:21.576Z,101083.66
2023-04-04T16:14:23.694Z,101085.44
2023-04-04T16:19:25.293Z,101078.78
2023-04-04T16:24:27.495Z,101093.41
2023-04-04T16:29:31.167Z,101077.81
2023-04-04T16:34:32.927Z,101088.47
2023-04-04T16:39:37.694Z,101082.66
2023-04-04T16:44:39.292Z,101085.59
2023-04-04T16:49:41.551Z,101078.34
2023-04-04T16:54:43.316Z,101081.94
2023-04-04T16:59:44.941Z,101077.25
2023-04-04T17:04:46.585Z,101072.63
2023-04-04T17:09:48.843Z,101079.75
2023-04-04T17:14:50.607Z,101070.97
2023-04-04T17:19:52.413Z,101065.91
2023-04-04T17:24:54.066Z,101073.47
2023-04-04T17:29:55.640Z,101076.19
2023-04-04T17:34:57.296Z,101070.63
2023-04-04T17:40:04.191Z,101075.81
2023-04-04T17:45:06.852Z,101072.22
2023-04-04T17:50:08.914Z,101069.78
2023-04-04T17:55:11.348Z,101067.84
2023-04-04T18:00:13.575Z,101079.84
2023-04-04T18:05:15.282Z,101075.31
2023-04-04T18:10:17.689Z,101072.00
2023-04-04T18:15:19.830Z,101079.91
2023-04-04T18:20:33.917Z,101080.66
2023-04-04T18:25:43.692Z,101080.06
2023-04-04T18:30:45.841Z,101083.66
2023-04-04T18:35:47.623Z,101081.69
2023-04-04T18:40:49.268Z,101084.72
2023-04-04T18:45:51.054Z,101094.31
2023-04-04T18:50:53.106Z,101089.97
2023-04-04T18:55:58.212Z,101081.25
2023-04-04T19:01:03.345Z,101091.66
2023-04-04T19:06:06.416Z,101096.41
2023-04-04T19:11:09.007Z,101089.56
2023-04-04T19:16:10.650Z,101091.06
2023-04-04T19:21:12.310Z,101079.91
2023-04-04T19:26:16.250Z,101091.41
2023-04-04T19:31:23.812Z,101090.38
2023-04-04T19:36:26.240Z,101084.69
2023-04-04T19:41:33.900Z,101079.94
2023-04-04T19:46:35.682Z,101082.88
2023-04-04T19:51:39.268Z,101084.00
2023-04-04T19:56:41.374Z,101078.41
2023-04-04T20:01:53.761Z,101082.00
2023-04-04T20:07:01.569Z,101076.13
2023-04-04T20:12:03.753Z,101085.91
2023-04-04T20:17:05.330Z,101087.59
2023-04-04T20:22:07.301Z,101077.28
2023-04-04T20:27:10.433Z,101077.13
2023-04-04T20:32:12.086Z,101077.19
2023-04-04T20:37:22.081Z,101078.53
2023-04-04T20:42:30.295Z,101074.16
2023-04-04T20:47:51.103Z,101071.97
2023-04-04T20:52:56.400Z,101065.53
2023-04-04T20:58:06.447Z,101073.50
2023-04-04T21:03:32.537Z,101083.94
2023-04-04T21:08:47.687Z,101075.41
2023-04-04T21:13:49.313Z,101074.44
2023-04-04T21:18:56.873Z,101069.69
2023-04-04T21:23:59.965Z,101065.75
2023-04-04T21:29:04.550Z,101066.47
2023-04-04T21:34:14.847Z,101062.16
2023-04-04T21:39:23.251Z,101053.22
2023-04-04T21:44:26.053Z,101050.84
2023-04-04T21:49:28.037Z,101041.06
2023-04-04T21:54:29.597Z,101049.44
2023-04-04T21:59:31.284Z,101046.22
2023-04-04T22:04:33.024Z,101039.00
2023-04-04T22:09:34.629Z,101039.59
2023-04-04T22:14:42.774Z,101039.78
2023-04-04T22:19:46.714Z,101042.81
2023-04-04T22:24:50.956Z,101030.31
2023-04-04T22:29:52.536Z,101032.00
2023-04-04T22:34:54.352Z,101035.06
2023-04-04T22:39:56.013Z,101028.78
2023-04-04T22:44:57.595Z,101028.69
2023-04-04T22:50:04.590Z,101026.13
2023-04-04T22:55:07.418Z,101039.47
2023-04-04T23:00:11.236Z,101036.94
2023-04-04T23:05:14.395Z,101029.56
2023-04-04T23:10:16.213Z,101014.88
2023-04-04T23:15:17.801Z,101024.44
2023-04-04T23:20:19.501Z,101019.97
2023-04-04T23:25:21.120Z,101023.00
2023-04-04T23:30:26.104Z,101008.81
2023-04-04T23:35:27.759Z,101011.00
2023-04-04T23:40:29.360Z,101019.69
2023-04-04T23:45:33.580Z,101013.75
2023-04-04T23:50:35.198Z,101012.88
2023-04-04T23:55:37.053Z,101007.59
